Time;durP1;ratioP1;P1;durP2;ratioP2;P2;SDS_P1;SDS_P2;PMS_P1;PMS_P2;Temp;Humidity;BMP_temperature;BMP_pressure;BME280_temperature;BME280_humidity;BME280_pressure;Samples;Min_cycle;Max_cycle;Signal;HPM_P1;HPM_P2
2022/06/18 00:00:12;;;;;;;9.80;6.28;;;;;;;13.33;100.00;99243.81;5025792;28;20068;-39
2022/06/18 00:02:42;;;;;;;9.73;6.00;;;;;;;13.32;100.00;99242.97;5032186;28;20064;-42
2022/06/18 00:05:08;;;;;;;;;;;;;;;13.32;100.00;99242.13;5032856;28;20045;-40
2022/06/18 00:07:37;;;;;;;9.63;5.72;;;;;;;13.25;100.00;99223.31;5030367;28;20388;-39
2022/06/18 00:10:06;;;;;;;9.73;5.55;;;;;;;13.31;100.00;99238.66;5052955;28;20056;-40
2022/06/18 00:15:21;;;;;;;13.50;5.32;;;;;;;13.28;100.00;99233.63;5028543;28;20043;-40
2022/06/18 00:17:50;;;;;;;9.57;5.15;;;;;;;13.26;100.00;99251.13;5035693;28;20052;-40
2022/06/18 00:20:17;;;;;;;6.65;4.82;;;;;;;13.25;100.00;99245.97;5031863;28;20045;-40
2022/06/18 00:22:45;;;;;;;6.85;5.28;;;;;;;13.23;100.00;99246.06;5028866;28;20465;-41
2022/06/18 00:25:28;;;;;;;7.25;4.40;;;;;;;13.22;100.00;99251.34;5010689;28;20066;-40
2022/06/18 00:27:56;;;;;;;7.68;4.55;;;;;;;13.20;100.00;99247.97;5028460;28;20585;-41
2022/06/18 00:30:23;;;;;;;7.55;5.60;;;;;;;13.22;100.00;99246.97;5058337;28;20037;-41
2022/06/18 00:32:50;;;;;;;10.63;5.63;;;;;;;13.23;100.00;99245.22;5028676;28;20033;-40
2022/06/18 00:35:16;;;;;;;9.65;6.07;;;;;;;13.22;100.00;99246.13;5029189;28;20420;-39
2022/06/18 00:37:43;;;;;;;8.30;5.80;;;;;;;13.21;100.00;99249.66;5029895;28;20037;-40
2022/06/18 00:40:16;;;;;;;9.15;5.57;;;;;;;13.16;100.00;99247.28;5028136;28;20046;-41
2022/06/18 00:42:43;;;;;;;7.50;5.20;;;;;;;13.15;100.00;99250.81;5022698;28;20045;-40
2022/06/18 00:45:13;;;;;;;9.02;5.45;;;;;;;13.04;100.00;99237.44;5010204;28;20464;-40
2022/06/18 00:48:16;;;;;;;8.43;5.10;;;;;;;13.10;100.00;99253.63;5027656;28;20038;-40
2022/06/18 00:50:51;;;;;;;9.00;5.15;;;;;;;13.08;100.00;99260.69;5034893;28;20045;-41
2022/06/18 00:53:30;;;;;;;8.10;5.00;;;;;;;13.08;100.00;99260.69;5040651;28;20045;-40
2022/06/18 00:56:04;;;;;;;7.88;5.35;;;;;;;13.09;100.00;99259.78;5061349;28;20154;-41
2022/06/18 00:58:36;;;;;;;12.57;4.90;;;;;;;13.09;100.00;99265.00;5033150;28;20041;-42
2022/06/18 01:01:12;;;;;;;9.77;4.93;;;;;;;13.11;100.00;99265.81;5027447;28;20057;-39
2022/06/18 01:03:38;;;;;;;6.93;4.22;;;;;;;13.03;100.00;99256.66;5028738;28;20040;-40
2022/06/18 01:06:18;;;;;;;7.05;4.75;;;;;;;13.12;100.00;99269.25;5012821;28;20052;-46
2022/06/18 01:08:44;;;;;;;7.25;5.10;;;;;;;13.07;100.00;99264.25;5008541;28;20145;-40
2022/06/18 01:11:20;;;;;;;6.38;5.20;;;;;;;13.13;100.00;99268.34;5046445;28;20045;-40
2022/06/18 01:13:47;;;;;;;6.70;4.70;;;;;;;13.05;100.00;99266.09;5002771;28;20049;-40
2022/06/18 01:16:13;;;;;;;7.57;4.63;;;;;;;13.12;100.00;99269.25;5043191;28;20037;-39
2022/06/18 01:18:43;;;;;;;9.13;4.93;;;;;;;13.12;100.00;99271.88;5033656;28;20050;-38
2022/06/18 01:21:14;;;;;;;9.18;5.05;;;;;;;13.13;100.00;99278.78;5061261;28;20072;-40
2022/06/18 01:23:58;;;;;;;10.10;5.63;;;;;;;13.14;100.00;99273.47;5024699;28;20061;-41
2022/06/18 01:26:25;;;;;;;12.38;5.43;;;;;;;13.12;100.00;99277.94;5032383;28;20056;-40
2022/06/18 01:28:51;;;;;;;6.93;5.18;;;;;;;13.13;100.00;99282.25;5046288;28;20050;-42
2022/06/18 01:31:18;;;;;;;6.07;4.97;;;;;;;13.13;100.00;99284.84;5031071;28;20053;-40
2022/06/18 01:33:46;;;;;;;6.97;5.38;;;;;;;13.12;100.00;99288.38;5030583;28;20044;-39
2022/06/18 01:36:13;;;;;;;8.48;5.82;;;;;;;13.12;100.00;99290.16;5030998;28;20041;-40
2022/06/18 01:38:44;;;;;;;8.13;5.32;;;;;;;13.11;100.00;99288.41;5060184;28;20596;-40
2022/06/18 01:44:13;;;;;;;7.72;4.78;;;;;;;13.04;100.00;99294.84;5031657;28;20049;-40
2022/06/18 01:46:43;;;;;;;8.27;4.88;;;;;;;13.10;100.00;99312.81;5064894;28;20460;-40
2022/06/18 01:49:20;;;;;;;9.02;5.05;;;;;;;13.09;100.00;99308.53;5047705;28;20457;-40
2022/06/18 01:51:47;;;;;;;8.88;4.40;;;;;;;13.09;100.00;99305.91;5036590;28;20108;-41
2022/06/18 01:54:23;;;;;;;8.07;4.57;;;;;;;13.08;100.00;99307.66;5040849;28;20037;-41
2022/06/18 01:56:55;;;;;;;9.75;5.65;;;;;;;13.09;100.00;99306.75;5028303;28;20042;-41
2022/06/18 01:59:26;;;;;;;5.80;4.75;;;;;;;13.11;100.00;99320.63;5013531;28;20057;-41
2022/06/18 02:01:52;;;;;;;8.07;4.55;;;;;;;13.12;100.00;99314.47;5043584;28;20481;-41
2022/06/18 02:04:20;;;;;;;4.63;3.30;;;;;;;13.11;100.00;99312.78;5029273;28;20073;-41
2022/06/18 02:06:47;;;;;;;6.07;3.95;;;;;;;13.12;100.00;99317.09;5012686;28;20128;-40
2022/06/18 02:09:29;;;;;;;5.20;3.80;;;;;;;13.15;100.00;99313.47;5028776;28;20524;-40
2022/06/18 02:11:56;;;;;;;5.32;4.10;;;;;;;13.17;100.00;99314.25;5031383;28;20103;-40
2022/06/18 02:14:24;;;;;;;4.15;3.17;;;;;;;13.20;100.00;99318.44;5029752;28;20045;-41
2022/06/18 02:16:51;;;;;;;4.60;3.67;;;;;;;13.23;100.00;99311.31;5029690;28;20037;-40
2022/06/18 02:19:18;;;;;;;5.03;3.42;;;;;;;13.27;100.00;99307.63;5061774;28;20124;-40
2022/06/18 02:21:48;;;;;;;4.88;3.67;;;;;;;13.23;100.00;99298.28;5041317;28;20132;-41
2022/06/18 02:24:15;;;;;;;5.30;3.85;;;;;;;13.33;100.00;99306.47;5002841;28;20052;-40
2022/06/18 02:26:45;;;;;;;4.77;2.70;;;;;;;13.21;100.00;99281.00;5030753;28;20065;-40
2022/06/18 02:29:21;;;;;;;5.70;3.25;;;;;;;13.37;100.00;99315.81;5027294;28;20555;-41
2022/06/18 02:31:47;;;;;;;2.90;2.60;;;;;;;13.38;100.00;99302.69;5035170;28;20083;-41
2022/06/18 02:34:29;;;;;;;5.15;3.15;;;;;;;13.41;100.00;99310.38;5064616;28;20045;-40
2022/06/18 02:36:55;;;;;;;3.38;2.67;;;;;;;13.36;100.00;99291.47;5031501;28;20048;-41
2022/06/18 02:39:50;;;;;;;5.20;3.17;;;;;;;13.47;100.00;99301.38;5030014;28;20632;-41
2022/06/18 02:42:19;;;;;;;5.00;3.10;;;;;;;13.45;100.00;99305.84;5042710;28;20131;-40
2022/06/18 02:44:46;;;;;;;3.28;2.65;;;;;;;13.47;100.00;99303.97;5032181;28;20029;-40
2022/06/18 02:47:14;;;;;;;4.60;3.65;;;;;;;13.54;100.00;99307.97;5066549;28;20579;-40
2022/06/18 02:50:03;;;;;;;6.00;2.60;;;;;;;13.58;100.00;99312.94;5030533;28;20045;-42
2022/06/18 02:52:34;;;;;;;4.82;3.42;;;;;;;13.62;100.00;99307.56;5045288;28;20064;-39
2022/06/18 02:55:40;;;;;;;6.32;3.75;;;;;;;13.66;100.00;99309.91;5015343;28;20049;-40
2022/06/18 02:58:23;;;;;;;3.75;2.20;;;;;;;13.66;100.00;99304.69;5028366;28;20160;-40
2022/06/18 03:01:16;;;;;;;2.42;2.22;;;;;;;13.70;100.00;99292.34;5039848;28;20216;-41
2022/06/18 03:03:47;;;;;;;2.75;2.20;;;;;;;13.72;100.00;99295.69;5029450;28;20053;-40
2022/06/18 03:06:14;;;;;;;8.07;5.00;;;;;;;13.74;100.00;99297.31;5014314;28;20410;-41
2022/06/18 03:08:40;;;;;;;6.93;2.65;;;;;;;13.68;100.00;99289.78;5028745;28;20037;-41
2022/06/18 03:13:51;;;;;;;2.90;2.28;;;;;;;13.79;100.00;99305.75;5014316;28;20510;-42
2022/06/18 03:16:19;;;;;;;2.47;2.28;;;;;;;13.81;100.00;99309.13;5010138;28;20041;-40
2022/06/18 03:18:47;;;;;;;2.97;2.40;;;;;;;13.85;100.00;99304.56;5026081;28;20055;-40
2022/06/18 03:21:25;;;;;;;4.82;2.30;;;;;;;13.90;100.00;99300.78;5031781;28;20037;-40
2022/06/18 03:23:53;;;;;;;6.25;2.20;;;;;;;13.85;100.00;99288.91;5024490;28;20049;-41
2022/06/18 03:26:19;;;;;;;9.00;2.20;;;;;;;13.98;99.79;99300.34;5028609;28;20544;-40
2022/06/18 03:28:50;;;;;;;5.35;2.60;;;;;;;13.96;98.84;99292.63;5029435;28;20071;-40
2022/06/18 03:31:16;;;;;;;5.47;2.55;;;;;;;13.90;98.71;99273.81;5029564;28;20501;-41
2022/06/18 03:33:42;;;;;;;3.70;2.25;;;;;;;14.09;98.02;99300.63;5028046;28;20073;-41
2022/06/18 03:36:10;;;;;;;7.22;2.20;;;;;;;14.02;96.41;99281.00;5029759;28;20045;-40
2022/06/18 03:38:37;;;;;;;4.45;2.08;;;;;;;14.15;95.94;99295.06;5040987;28;20042;-40
2022/06/18 03:41:03;;;;;;;3.70;2.13;;;;;;;14.20;95.52;99293.03;5038066;28;20045;-40
2022/06/18 03:43:31;;;;;;;6.47;2.10;;;;;;;14.17;94.49;99281.91;5027264;28;20095;-40
2022/06/18 03:46:05;;;;;;;3.85;2.80;;;;;;;14.27;94.08;99304.00;5062397;28;20088;-40
2022/06/18 03:48:38;;;;;;;4.43;1.85;;;;;;;14.33;93.31;99299.28;5039971;28;20037;-41
2022/06/18 03:51:05;;;;;;;4.20;2.17;;;;;;;14.25;92.74;99277.09;5013467;28;20667;-41
2022/06/18 03:53:33;;;;;;;3.03;2.00;;;;;;;14.43;92.76;99302.25;5060356;28;20046;-40
2022/06/18 03:56:01;;;;;;;3.47;1.80;;;;;;;14.47;92.37;99302.91;5028165;28;20046;-40
2022/06/18 03:58:29;;;;;;;4.78;2.00;;;;;;;14.54;91.08;99304.28;5038060;28;20045;-42
2022/06/18 04:00:56;;;;;;;3.28;1.73;;;;;;;14.59;91.23;99299.63;5040805;28;20449;-41
2022/06/18 04:03:23;;;;;;;5.78;1.67;;;;;;;14.62;90.48;99313.38;5038454;28;20511;-42
2022/06/18 04:05:49;;;;;;;4.32;1.70;;;;;;;14.64;89.79;99308.91;5021878;28;20132;-41
2022/06/18 04:08:20;;;;;;;1.60;1.33;;;;;;;14.71;88.78;99309.38;5020200;28;20421;-40
2022/06/18 04:10:53;;;;;;;2.58;1.42;;;;;;;14.69;87.30;99303.41;5023099;28;20132;-41
2022/06/18 04:13:22;;;;;;;3.83;1.55;;;;;;;14.79;85.62;99301.94;5029571;28;20046;-41
2022/06/18 04:16:11;;;;;;;3.35;1.40;;;;;;;14.84;84.18;99308.59;5024108;28;20049;-40
2022/06/18 04:18:37;;;;;;;3.85;1.50;;;;;;;14.89;83.19;99308.31;5035072;28;20046;-41
2022/06/18 04:21:06;;;;;;;2.25;1.30;;;;;;;14.95;82.93;99314.97;5020762;28;20417;-40
2022/06/18 04:23:34;;;;;;;2.00;1.80;;;;;;;15.01;81.91;99314.63;5006867;28;20120;-40
2022/06/18 04:26:03;;;;;;;2.03;1.83;;;;;;;15.08;82.12;99315.94;5038264;28;20052;-40
2022/06/18 04:28:29;;;;;;;4.20;1.60;;;;;;;15.14;81.54;99305.97;5028618;28;20045;-40
2022/06/18 04:31:08;;;;;;;2.47;1.35;;;;;;;15.20;81.01;99316.06;5011226;28;20046;-41
2022/06/18 04:33:38;;;;;;;3.30;1.63;;;;;;;15.22;79.82;99303.75;5029433;28;20029;-41
2022/06/18 04:36:35;;;;;;;1.88;1.48;;;;;;;15.33;79.93;99320.59;5022222;28;20111;-40
2022/06/18 04:39:05;;;;;;;2.03;1.15;;;;;;;15.37;78.47;99320.31;5013279;28;20517;-40
2022/06/18 04:41:41;;;;;;;3.75;1.42;;;;;;;15.45;77.38;99322.47;5020219;28;20037;-40
2022/06/18 04:44:13;;;;;;;1.98;1.30;;;;;;;15.51;75.41;99315.13;5037891;28;20042;-41
2022/06/18 04:46:42;;;;;;;2.13;1.30;;;;;;;15.58;75.05;99320.84;5043436;28;20049;-40
2022/06/18 04:49:08;;;;;;;3.47;1.20;;;;;;;15.63;74.85;99313.53;5050822;28;20044;-41
2022/06/18 04:51:34;;;;;;;4.03;1.38;;;;;;;15.71;73.91;99315.69;5033098;28;20041;-41
2022/06/18 04:54:00;;;;;;;4.97;1.70;;;;;;;15.76;73.35;99324.09;5016919;28;20107;-41
2022/06/18 04:56:27;;;;;;;2.55;0.98;;;;;;;15.82;72.45;99324.56;5037647;28;20435;-41
2022/06/18 04:58:53;;;;;;;1.98;1.17;;;;;;;15.91;71.42;99329.25;5067595;28;20041;-40
2022/06/18 05:01:26;;;;;;;3.35;1.15;;;;;;;15.98;69.76;99335.81;5031771;28;20069;-40
2022/06/18 05:04:10;;;;;;;1.70;0.90;;;;;;;16.07;67.52;99337.00;5034298;28;20048;-43
2022/06/18 05:06:47;;;;;;;2.35;1.05;;;;;;;16.00;66.95;99307.72;5044785;28;20041;-41
2022/06/18 05:09:32;;;;;;;5.47;1.02;;;;;;;16.20;67.35;99335.31;5043349;28;20048;-41
2022/06/18 05:12:06;;;;;;;2.80;0.80;;;;;;;16.28;66.39;99334.81;5019148;28;20091;-39
2022/06/18 05:14:47;;;;;;;1.73;0.90;;;;;;;16.28;64.94;99317.28;5036566;28;20173;-39
2022/06/18 05:17:27;;;;;;;3.08;1.10;;;;;;;16.39;64.59;99333.19;5048086;28;20049;-39
2022/06/18 05:19:53;;;;;;;1.07;0.97;;;;;;;16.44;64.95;99330.28;5016199;28;20056;-40
2022/06/18 05:22:19;;;;;;;2.15;1.02;;;;;;;16.53;65.04;99332.34;5032478;28;20067;-38
2022/06/18 05:24:46;;;;;;;2.65;1.02;;;;;;;16.60;65.20;99341.50;5033096;28;20041;-40
2022/06/18 05:27:21;;;;;;;3.38;1.60;;;;;;;16.60;65.08;99325.75;5035319;28;20072;-39
2022/06/18 05:29:48;;;;;;;1.27;0.98;;;;;;;16.77;64.75;99338.66;5027891;28;20038;-41
2022/06/18 05:32:14;;;;;;;0.70;0.70;;;;;;;16.82;64.44;99339.19;5040517;28;20033;-39
2022/06/18 05:34:41;;;;;;;6.82;0.90;;;;;;;16.93;63.57;99330.59;5048386;28;20072;-39
2022/06/18 05:37:27;;;;;;;2.35;1.00;;;;;;;16.99;63.50;99326.75;5048475;28;20080;-40
2022/06/18 05:39:53;;;;;;;2.50;1.17;;;;;;;17.07;63.25;99317.41;5016580;28;20045;-41
2022/06/18 05:42:21;;;;;;;4.93;1.20;;;;;;;17.26;62.06;99333.63;5037528;28;20045;-40
2022/06/18 05:44:47;;;;;;;1.67;1.00;;;;;;;17.31;60.69;99339.41;5033858;28;20179;-39
2022/06/18 05:47:22;;;;;;;3.72;0.88;;;;;;;17.36;58.71;99331.22;5014644;28;20571;-40
2022/06/18 05:49:48;;;;;;;1.27;0.95;;;;;;;17.40;59.33;99334.47;5030418;28;20064;-41
2022/06/18 05:52:14;;;;;;;1.00;0.90;;;;;;;17.55;58.76;99344.78;5013058;28;20528;-40
2022/06/18 05:54:40;;;;;;;4.78;1.20;;;;;;;17.54;58.55;99315.97;5013452;28;20045;-41
2022/06/18 05:57:25;;;;;;;1.60;0.90;;;;;;;17.75;58.55;99346.91;5030750;28;20199;-41
2022/06/18 06:00:19;;;;;;;3.13;1.17;;;;;;;17.89;58.89;99339.88;5031326;28;20057;-41
2022/06/18 06:02:48;;;;;;;2.22;1.20;;;;;;;18.02;59.10;99336.25;5015011;28;20041;-41
2022/06/18 06:05:15;;;;;;;1.38;1.00;;;;;;;18.15;58.05;99339.72;5044043;28;20033;-41
2022/06/18 06:07:44;;;;;;;1.60;1.00;;;;;;;18.28;58.37;99336.19;5014993;28;20417;-42
2022/06/18 06:13:24;;;;;;;1.98;0.90;;;;;;;18.45;56.36;99333.22;5029095;28;20042;-41
2022/06/18 06:15:50;;;;;;;1.42;1.10;;;;;;;18.49;55.19;99332.03;5031478;28;20044;-41
2022/06/18 06:18:18;;;;;;;1.48;0.93;;;;;;;18.49;55.08;99330.25;5032297;28;20041;-42
2022/06/18 06:20:47;;;;;;;3.63;1.50;;;;;;;18.61;55.76;99328.56;5032753;28;20080;-41
2022/06/18 06:23:13;;;;;;;3.40;0.80;;;;;;;18.80;55.62;99338.56;5031221;28;20046;-42
2022/06/18 06:25:41;;;;;;;1.52;1.10;;;;;;;18.71;52.81;99310.28;5031385;28;20041;-41
2022/06/18 06:28:10;;;;;;;4.10;0.95;;;;;;;18.86;52.98;99335.47;5032004;28;20048;-40
2022/06/18 06:30:36;;;;;;;1.15;0.90;;;;;;;19.03;53.81;99341.19;5014986;28;20145;-41
2022/06/18 06:33:02;;;;;;;7.65;1.73;;;;;;;19.23;54.58;99329.16;5032190;28;20413;-42
2022/06/18 06:35:29;;;;;;;6.53;1.52;;;;;;;19.59;54.49;99338.72;5006584;28;20041;-41
2022/06/18 06:37:56;;;;;;;2.63;1.00;;;;;;;19.81;53.48;99328.19;5032099;28;20037;-41
2022/06/18 06:40:24;;;;;;;2.00;0.90;;;;;;;20.00;53.14;99317.03;5032254;28;20068;-41
2022/06/18 06:42:51;;;;;;;5.88;1.02;;;;;;;20.56;51.65;99335.47;5030888;28;20091;-42
2022/06/18 06:45:22;;;;;;;1.38;1.20;;;;;;;21.34;49.79;99330.72;5039477;28;20493;-40
2022/06/18 06:47:48;;;;;;;41.10;4.05;;;;;;;22.24;48.21;99331.72;5028414;28;20040;-42
2022/06/18 06:50:15;;;;;;;2.97;1.15;;;;;;;23.37;45.72;99338.28;5030699;28;20429;-42
2022/06/18 06:52:42;;;;;;;2.45;1.50;;;;;;;24.32;42.97;99339.00;5032009;28;20034;-42
2022/06/18 06:58:14;;;;;;;7.90;2.85;;;;;;;27.05;38.43;99341.16;5027897;28;20037;-41
2022/06/18 07:00:42;;;;;;;3.63;1.65;;;;;;;28.16;36.19;99337.66;5031716;28;20053;-40
2022/06/18 07:03:12;;;;;;;1.83;1.73;;;;;;;29.08;32.59;99339.50;5029964;28;20073;-41
2022/06/18 07:05:38;;;;;;;2.38;1.00;;;;;;;29.52;31.53;99338.84;5019043;28;20037;-42
2022/06/18 07:08:04;;;;;;;2.00;1.20;;;;;;;29.97;31.02;99329.84;5022693;28;20046;-41
2022/06/18 07:10:30;;;;;;;2.08;1.55;;;;;;;29.35;32.12;99333.63;5024111;28;20045;-41
2022/06/18 07:12:56;;;;;;;3.05;1.52;;;;;;;30.53;29.56;99337.19;5025132;28;20029;-42
2022/06/18 07:15:21;;;;;;;2.78;1.20;;;;;;;31.26;29.35;99328.03;5019516;28;20065;-41
2022/06/18 07:17:47;;;;;;;2.92;1.80;;;;;;;32.57;28.21;99333.41;5024389;28;20044;-44
2022/06/18 07:20:16;;;;;;;1.83;0.90;;;;;;;31.68;27.31;99329.84;5024075;28;20041;-42
2022/06/18 07:22:42;;;;;;;5.18;1.58;;;;;;;29.74;30.52;99336.06;5022696;28;20044;-42
2022/06/18 07:25:09;;;;;;;1.30;1.17;;;;;;;30.57;29.00;99314.31;5053542;28;20095;-42
2022/06/18 07:27:35;;;;;;;2.28;1.30;;;;;;;31.40;27.06;99319.06;5024914;28;20037;-42
2022/06/18 07:30:01;;;;;;;1.10;1.05;;;;;;;31.40;26.81;99316.38;5027541;28;20072;-42
2022/06/18 07:32:28;;;;;;;3.53;1.20;;;;;;;30.38;27.64;99322.94;5013719;28;20045;-42
2022/06/18 07:34:55;;;;;;;2.13;1.10;;;;;;;30.87;27.72;99316.91;5019331;28;20046;-43
2022/06/18 07:37:22;;;;;;;2.88;1.30;;;;;;;30.50;28.17;99305.38;5025632;28;20041;-41
2022/06/18 07:39:49;;;;;;;1.58;1.10;;;;;;;31.10;28.05;99318.41;5021998;28;20080;-41
2022/06/18 07:42:19;;;;;;;1.90;1.52;;;;;;;29.22;29.68;99311.94;5022941;28;20055;-43
2022/06/18 07:44:45;;;;;;;8.48;1.85;;;;;;;28.25;31.39;99306.41;5023679;28;20037;-41
2022/06/18 07:47:14;;;;;;;4.00;1.10;;;;;;;28.14;31.10;99310.28;5022253;28;20167;-42
2022/06/18 07:49:40;;;;;;;1.67;0.98;;;;;;;27.04;32.86;99300.28;5022664;28;20045;-40
2022/06/18 07:52:06;;;;;;;7.63;1.45;;;;;;;26.29;34.81;99304.78;5002915;28;20525;-41
2022/06/18 07:54:32;;;;;;;3.25;1.20;;;;;;;25.96;34.69;99300.31;5004390;28;20052;-41
2022/06/18 07:56:58;;;;;;;1.90;1.27;;;;;;;27.98;31.94;99303.13;5021272;28;20038;-41
2022/06/18 07:59:24;;;;;;;1.95;0.98;;;;;;;29.44;29.77;99302.22;5030223;28;20103;-42
2022/06/18 08:01:49;;;;;;;3.67;1.20;;;;;;;28.31;31.58;99314.56;5030884;28;20037;-40
2022/06/18 08:04:15;;;;;;;2.67;1.20;;;;;;;26.71;33.25;99314.53;5029490;28;20154;-42
2022/06/18 08:06:41;;;;;;;3.05;1.10;;;;;;;25.06;35.59;99309.53;5030857;28;20041;-41
2022/06/18 08:09:08;;;;;;;1.30;1.00;;;;;;;24.18;37.12;99315.53;5028809;28;20132;-42
2022/06/18 08:11:35;;;;;;;1.30;0.90;;;;;;;23.78;38.13;99312.34;5029505;28;20084;-41
2022/06/18 08:14:01;;;;;;;3.28;1.45;;;;;;;23.51;38.99;99298.03;5029187;28;20037;-41
2022/06/18 08:16:28;;;;;;;3.63;1.30;;;;;;;26.70;35.02;99305.72;5028603;28;20033;-42
2022/06/18 08:18:54;;;;;;;5.50;1.58;;;;;;;29.73;30.58;99315.66;5030418;28;20061;-40
2022/06/18 08:21:24;;;;;;;3.83;1.40;;;;;;;31.63;28.79;99310.78;5030796;28;20083;-42
2022/06/18 08:23:53;;;;;;;1.92;1.38;;;;;;;33.29;25.69;99316.56;5028090;28;20131;-43
2022/06/18 08:26:19;;;;;;;1.83;1.50;;;;;;;33.29;24.72;99308.50;5029488;28;20046;-42
2022/06/18 08:28:45;;;;;;;2.58;1.40;;;;;;;34.29;23.93;99301.88;5028622;28;20041;-41
2022/06/18 08:31:11;;;;;;;3.83;1.52;;;;;;;35.84;22.47;99306.63;5012816;28;20452;-42
2022/06/18 08:33:37;;;;;;;1.65;1.33;;;;;;;36.05;21.31;99314.28;5029377;28;20421;-42
2022/06/18 08:36:06;;;;;;;1.10;1.00;;;;;;;33.79;22.43;99301.63;5004654;28;20041;-43
2022/06/18 08:38:33;;;;;;;3.25;0.80;;;;;;;31.44;24.79;99301.53;5027498;28;20549;-41
2022/06/18 08:41:04;;;;;;;2.75;1.02;;;;;;;29.65;27.68;99296.16;5028873;28;20037;-42
2022/06/18 08:43:51;;;;;;;2.60;1.13;;;;;;;28.65;28.58;99292.78;5026370;28;20041;-41
2022/06/18 08:46:23;;;;;;;7.25;1.48;;;;;;;28.37;29.44;99292.44;5028516;28;20038;-41
2022/06/18 08:49:09;;;;;;;1.10;1.00;;;;;;;27.82;29.93;99284.50;5030007;28;20038;-42
2022/06/18 08:51:35;;;;;;;1.98;1.30;;;;;;;27.49;30.99;99293.53;5027923;28;20046;-42
2022/06/18 08:54:12;;;;;;;1.40;0.98;;;;;;;27.54;31.38;99280.56;5030118;28;20136;-41
2022/06/18 08:56:43;;;;;;;5.18;4.07;;;;;;;27.44;31.72;99291.38;5030154;28;20053;-41
2022/06/18 08:59:41;;;;;;;3.67;1.38;;;;;;;26.83;32.57;99289.22;5012169;28;20045;-41
2022/06/18 09:02:31;;;;;;;5.43;1.80;;;;;;;26.40;33.56;99299.16;5026101;28;20497;-42
2022/06/18 09:05:03;;;;;;;3.88;2.08;;;;;;;28.28;31.08;99304.19;5028318;28;20041;-42
2022/06/18 09:07:52;;;;;;;3.92;1.70;;;;;;;29.36;28.38;99292.41;5029948;28;20057;-42
2022/06/18 09:10:32;;;;;;;4.22;1.98;;;;;;;28.61;29.90;99294.16;5028395;28;20033;-41
2022/06/18 09:13:13;;;;;;;4.43;1.30;;;;;;;27.65;31.45;99296.22;5028671;28;20513;-41
2022/06/18 09:15:43;;;;;;;3.83;1.10;;;;;;;26.71;32.14;99304.72;5012609;28;20037;-41
2022/06/18 09:18:14;;;;;;;4.07;1.63;;;;;;;25.97;33.33;99291.31;5028405;28;20115;-41
2022/06/18 09:20:58;;;;;;;13.05;6.57;;;;;;;25.72;34.75;99293.03;5026351;28;20069;-41
2022/06/18 09:23:49;;;;;;;3.22;1.50;;;;;;;28.10;30.79;99291.06;5027714;28;20044;-41
2022/06/18 09:26:28;;;;;;;13.00;5.32;;;;;;;30.14;28.40;99294.59;5028971;28;20041;-41
2022/06/18 09:29:20;;;;;;;4.90;1.05;;;;;;;29.49;29.15;99286.44;5031725;28;20468;-41
2022/06/18 09:31:52;;;;;;;6.60;1.88;;;;;;;28.48;30.68;99292.03;5032729;28;20059;-40
2022/06/18 09:34:26;;;;;;;3.95;1.50;;;;;;;28.79;30.41;99288.53;5033834;28;20094;-40
2022/06/18 09:36:59;;;;;;;1.77;1.48;;;;;;;31.27;25.68;99299.31;5033139;28;20049;-41
2022/06/18 09:39:29;;;;;;;2.25;1.20;;;;;;;31.89;25.26;99292.13;5032235;28;20471;-44
2022/06/18 09:42:00;;;;;;;3.40;1.58;;;;;;;33.54;24.10;99279.03;5032266;28;20444;-41
2022/06/18 09:44:58;;;;;;;1.27;1.17;;;;;;;33.58;24.31;99291.91;5033172;28;20044;-43
2022/06/18 09:47:47;;;;;;;1.43;0.87;;;;;;;31.24;26.01;99286.28;5032907;28;20073;-43
2022/06/18 09:50:18;;;;;;;1.80;1.00;;;;;;;29.74;27.89;99276.28;5012428;28;20056;-40
2022/06/18 09:52:49;;;;;;;2.03;1.13;;;;;;;28.65;29.15;99282.06;5053074;28;20121;-40
2022/06/18 09:55:20;;;;;;;3.55;1.20;;;;;;;27.48;30.44;99275.88;5031007;28;20038;-43
2022/06/18 09:57:49;;;;;;;2.38;1.50;;;;;;;26.67;31.42;99262.53;5014905;28;20045;-41
2022/06/18 10:00:18;;;;;;;2.70;1.10;;;;;;;26.09;32.20;99276.69;5032761;28;20148;-42
2022/06/18 10:03:04;;;;;;;;;;;;;;;25.36;32.64;99276.31;5030565;28;20041;-41
2022/06/18 10:08:35;;;;;;;2.40;1.33;;;;;;;25.07;33.87;99275.78;5026968;28;20052;-42
2022/06/18 10:11:07;;;;;;;5.10;1.08;;;;;;;25.43;33.33;99258.72;5046358;28;20124;-41
2022/06/18 10:13:41;;;;;;;1.63;1.20;;;;;;;28.31;29.74;99285.16;5030699;28;20480;-41
2022/06/18 10:16:13;;;;;;;2.22;1.52;;;;;;;30.45;26.57;99289.00;5026904;28;20172;-43
2022/06/18 10:18:56;;;;;;;4.95;1.30;;;;;;;32.22;24.58;99283.41;5032643;28;20471;-41
2022/06/18 10:21:33;;;;;;;3.83;1.40;;;;;;;33.31;22.88;99278.66;5015201;28;20099;-45
2022/06/18 10:24:09;;;;;;;4.35;1.40;;;;;;;33.64;22.95;99282.13;5015329;28;20045;-42
2022/06/18 10:26:45;;;;;;;2.33;1.33;;;;;;;33.85;22.28;99270.28;5031425;28;20048;-45
2022/06/18 10:29:34;;;;;;;7.65;1.50;;;;;;;35.24;20.82;99282.00;4999098;28;20046;-40
2022/06/18 10:32:02;;;;;;;3.65;1.50;;;;;;;35.37;19.92;99279.19;5028961;28;20055;-41
2022/06/18 10:34:31;;;;;;;2.40;1.05;;;;;;;34.65;21.16;99277.00;5031702;28;20037;-43
2022/06/18 10:37:29;;;;;;;1.30;0.80;;;;;;;31.87;22.59;99279.91;5031813;28;20076;-42
2022/06/18 10:40:05;;;;;;;1.98;0.73;;;;;;;29.79;25.33;99266.66;5026845;28;20069;-41
2022/06/18 10:42:40;;;;;;;3.25;1.30;;;;;;;29.39;25.86;99267.13;5032637;28;20107;-45
2022/06/18 10:45:28;;;;;;;1.20;1.10;;;;;;;30.80;24.29;99270.38;5032034;28;20071;-43
2022/06/18 10:47:54;;;;;;;2.03;0.88;;;;;;;30.29;24.29;99262.38;4998784;28;20033;-43
2022/06/18 10:50:21;;;;;;;3.22;1.20;;;;;;;29.99;24.84;99266.16;5032610;28;20056;-42
2022/06/18 10:53:02;;;;;;;0.90;0.90;;;;;;;30.94;24.26;99262.22;5030510;28;20041;-42
2022/06/18 10:55:29;;;;;;;2.15;1.08;;;;;;;30.04;24.57;99258.38;5010029;28;20516;-41
2022/06/18 10:58:15;;;;;;;2.90;1.17;;;;;;;29.89;24.85;99256.53;5011493;28;20046;-42
2022/06/18 11:00:54;;;;;;;0.95;0.90;;;;;;;29.43;24.84;99263.06;5013658;28;20525;-41
2022/06/18 11:03:22;;;;;;;1.02;0.90;;;;;;;29.12;25.47;99257.81;5031405;28;20053;-42
2022/06/18 11:05:49;;;;;;;0.98;0.73;;;;;;;28.67;25.86;99247.13;5025804;28;20065;-42
2022/06/18 11:08:30;;;;;;;0.85;0.77;;;;;;;28.13;26.62;99265.84;5030036;28;20067;-41
2022/06/18 11:11:01;;;;;;;3.45;0.98;;;;;;;28.42;26.63;99257.19;5030195;28;20127;-42
2022/06/18 11:13:48;;;;;;;0.68;0.68;;;;;;;28.57;26.06;99258.91;5006545;28;20041;-40
2022/06/18 11:16:21;;;;;;;1.50;0.75;;;;;;;28.25;26.65;99247.56;5029225;28;20037;-42
2022/06/18 11:18:56;;;;;;;1.45;1.00;;;;;;;29.24;26.09;99248.34;5022568;28;20069;-42
2022/06/18 11:21:25;;;;;;;1.55;0.98;;;;;;;29.47;25.22;99241.06;5022164;28;20045;-42
2022/06/18 11:24:03;;;;;;;2.65;1.30;;;;;;;30.04;24.62;99251.16;5026472;28;20057;-41
2022/06/18 11:26:30;;;;;;;1.83;1.30;;;;;;;30.84;24.28;99245.63;5027888;28;20033;-42
2022/06/18 11:29:01;;;;;;;3.35;1.30;;;;;;;32.65;22.67;99241.72;5044518;28;20099;-42
2022/06/18 11:31:31;;;;;;;1.48;1.38;;;;;;;33.43;21.71;99242.78;5031496;28;20195;-41
2022/06/18 11:34:04;;;;;;;3.38;1.40;;;;;;;33.04;21.10;99227.44;5027478;28;20076;-42
2022/06/18 11:36:48;;;;;;;1.95;1.00;;;;;;;32.87;21.30;99230.78;5029899;28;20424;-42
2022/06/18 11:39:34;;;;;;;3.63;1.20;;;;;;;30.72;23.44;99229.19;5054912;28;20134;-41
2022/06/18 11:42:32;;;;;;;2.85;1.48;;;;;;;30.15;24.42;99223.84;5028153;28;20517;-40
2022/06/18 11:45:36;;;;;;;3.40;1.13;;;;;;;29.62;25.10;99234.91;5042813;28;20667;-42
2022/06/18 11:48:32;;;;;;;2.80;1.13;;;;;;;28.57;25.92;99225.97;5026860;28;20106;-42
2022/06/18 11:51:09;;;;;;;1.63;1.05;;;;;;;28.00;26.54;99228.13;5012573;28;20132;-46
2022/06/18 11:53:43;;;;;;;2.90;1.27;;;;;;;27.54;26.74;99224.47;5053620;28;20041;-42
2022/06/18 11:56:21;;;;;;;2.47;1.15;;;;;;;27.50;26.96;99215.13;5028341;28;20163;-42
2022/06/18 11:59:15;;;;;;;6.10;2.40;;;;;;;27.57;27.16;99222.31;5028390;28;20048;-42
2022/06/18 12:01:46;;;;;;;5.20;1.05;;;;;;;28.75;26.13;99214.97;5011457;28;20057;-41
2022/06/18 12:04:23;;;;;;;3.67;1.55;;;;;;;29.85;25.70;99214.16;5029212;28;20536;-42
2022/06/18 12:07:02;;;;;;;9.07;3.03;;;;;;;30.50;25.50;99238.28;5030797;28;20045;-42
2022/06/18 12:09:28;;;;;;;3.88;1.33;;;;;;;29.62;27.65;99230.38;5027023;28;20048;-42
2022/06/18 12:12:08;;;;;;;5.03;1.60;;;;;;;29.07;29.38;99233.44;5037707;28;20096;-41